Terminal Aerodrome Forecast
Issued by NWS

Home | Current Version | Previous Version | Text Only | Print | Product List | Glossary On
Versions: 1 2 3 4 5 6 7 8 9 10 11 12 13 14 15 16
000
FTUS45 KABQ 240500
TAFLVS
TAF
KLVS 240524Z 2406/2506 19010KT P6SM FEW200
     FM241600 21013G22KT P6SM FEW100
     FM241900 22015G25KT P6SM FEW110
     FM250200 19010KT P6SM SCT120=

USA.gov is the U.S. government's official web portal to all federal, state and local government web resources and services.